Time;durP1;ratioP1;P1;durP2;ratioP2;P2;SDS_P1;SDS_P2;PMS_P1;PMS_P2;Temp;Humidity;BMP_temperature;BMP_pressure;BME280_temperature;BME280_humidity;BME280_pressure;Samples;Min_cycle;Max_cycle;Signal;HPM_P1;HPM_P2
2021/11/06 00:06:07;;;;;;;20.88;12.40;;;23.10;62.80;;;;;;31514438;28;20045;-38
2021/11/06 00:21:09;;;;;;;17.23;10.80;;;23.00;62.70;;;;;;31511718;28;20069;-37
2021/11/06 00:36:11;;;;;;;15.52;11.13;;;23.00;63.10;;;;;;31511423;28;20108;-41
2021/11/06 00:51:13;;;;;;;17.80;10.80;;;22.90;63.30;;;;;;31511069;28;20155;-36
2021/11/06 01:06:15;;;;;;;15.55;10.70;;;22.90;63.20;;;;;;31510846;28;20094;-35
2021/11/06 01:21:17;;;;;;;15.32;10.25;;;22.90;63.20;;;;;;31506627;28;20056;-41
2021/11/06 01:36:19;;;;;;;16.42;10.40;;;22.90;63.30;;;;;;31504066;28;20049;-43
2021/11/06 01:51:22;;;;;;;14.32;9.52;;;22.90;63.30;;;;;;31503371;28;20074;-36
2021/11/06 02:06:24;;;;;;;17.08;9.23;;;22.90;63.50;;;;;;31500330;28;20102;-42
2021/11/06 02:21:26;;;;;;;14.25;9.52;;;22.90;63.90;;;;;;31497546;28;20052;-39
2021/11/06 02:36:28;;;;;;;13.82;8.32;;;22.90;64.30;;;;;;31497055;28;20057;-37
2021/11/06 02:51:30;;;;;;;12.90;8.55;;;22.90;64.30;;;;;;31497390;28;20093;-35
2021/11/06 03:06:32;;;;;;;14.70;9.15;;;22.90;64.30;;;;;;31497983;28;20048;-42
2021/11/06 03:21:34;;;;;;;13.85;9.43;;;22.90;64.20;;;;;;31497271;28;20052;-43
2021/11/06 03:36:37;;;;;;;13.45;8.80;;;22.80;64.30;;;;;;31512729;28;20100;-41
2021/11/06 03:51:39;;;;;;;11.52;8.13;;;22.80;64.10;;;;;;31516947;28;20072;-37
2021/11/06 04:06:41;;;;;;;10.38;6.90;;;22.90;64.50;;;;;;31517679;28;20064;-35
2021/11/06 04:21:43;;;;;;;13.13;6.40;;;23.30;64.50;;;;;;31515478;28;20103;-40
2021/11/06 04:36:46;;;;;;;10.00;6.15;;;23.40;63.80;;;;;;31509785;28;20056;-38
2021/11/06 04:51:48;;;;;;;11.40;6.55;;;23.40;64.00;;;;;;31508729;28;20095;-36
2021/11/06 05:06:50;;;;;;;9.85;6.50;;;23.30;64.10;;;;;;31510721;28;20048;-35
2021/11/06 05:21:52;;;;;;;10.43;6.68;;;23.20;64.20;;;;;;31508669;28;20045;-41
2021/11/06 05:36:54;;;;;;;7.35;6.10;;;23.10;64.30;;;;;;31503495;28;20099;-43
2021/11/06 05:51:59;;;;;;;17.92;8.13;;;23.10;64.20;;;;;;31462784;28;20102;-37
2021/11/06 06:07:05;;;;;;;29.67;18.27;;;23.00;63.70;;;;;;31373025;28;20065;-39
2021/11/06 06:22:07;;;;;;;30.98;19.08;;;22.80;61.00;;;;;;31381352;28;20065;-43
2021/11/06 06:37:09;;;;;;;48.03;20.17;;;22.60;61.50;;;;;;31418510;28;20058;-42
2021/11/06 06:52:13;;;;;;;34.53;18.58;;;23.10;62.40;;;;;;31246842;28;20042;-42
2021/11/06 07:07:16;;;;;;;29.60;16.60;;;23.30;62.10;;;;;;31252585;28;20030;-43
2021/11/06 07:22:18;;;;;;;29.00;16.25;;;23.30;61.80;;;;;;31272344;28;20053;-42
2021/11/06 07:37:20;;;;;;;23.23;14.98;;;23.20;61.80;;;;;;31269862;28;20511;-35
2021/11/06 07:52:22;;;;;;;25.85;14.95;;;23.10;62.10;;;;;;31267872;28;20101;-35
2021/11/06 08:07:24;;;;;;;23.30;13.43;;;23.00;62.70;;;;;;31276080;28;20092;-44
2021/11/06 08:22:28;;;;;;;35.50;24.40;;;22.90;62.40;;;;;;31463828;28;20048;-42
2021/11/06 08:37:33;;;;;;;22.38;15.18;;;22.50;58.20;;;;;;31467750;28;20057;-45
2021/11/06 08:52:36;;;;;;;20.30;14.40;;;22.70;56.40;;;;;;31383530;28;20124;-36
2021/11/06 09:07:39;;;;;;;22.08;13.63;;;23.20;59.10;;;;;;31379287;28;20069;-35
2021/11/06 09:22:42;;;;;;;19.75;12.13;;;23.30;59.50;;;;;;31379082;28;20053;-35
2021/11/06 09:37:44;;;;;;;15.02;10.75;;;23.30;59.50;;;;;;31378155;28;20050;-42
2021/11/06 09:52:47;;;;;;;14.38;10.10;;;23.30;59.60;;;;;;31375742;28;20069;-35
2021/11/06 10:07:49;;;;;;;13.88;9.45;;;23.20;59.50;;;;;;31375205;28;20104;-40
2021/11/06 10:22:58;;;;;;;11.60;9.00;;;23.20;59.20;;;;;;31374183;28;20069;-35
2021/11/06 10:38:15;;;;;;;14.37;8.23;;;23.10;59.20;;;;;;31372032;28;20056;-41
2021/11/06 10:53:43;;;;;;;24.88;8.52;;;23.00;59.20;;;;;;31372518;28;20045;-41
2021/11/06 11:08:50;;;;;;;11.60;7.75;;;22.90;60.30;;;;;;31369613;28;20041;-37
2021/11/06 11:24:02;;;;;;;16.55;7.28;;;22.80;60.30;;;;;;31369167;28;20046;-37
2021/11/06 11:39:08;;;;;;;9.43;6.53;;;22.80;60.50;;;;;;31367798;28;20081;-37
2021/11/06 11:54:11;;;;;;;10.32;6.20;;;23.10;60.30;;;;;;31380728;28;20406;-39
2021/11/06 12:09:16;;;;;;;22.35;6.22;;;23.30;60.10;;;;;;31388215;28;20097;-41
2021/11/06 12:24:24;;;;;;;13.80;6.03;;;23.40;59.80;;;;;;31429469;28;20069;-36
2021/11/06 12:39:53;;;;;;;18.30;6.57;;;23.40;60.30;;;;;;31440964;28;20049;-36
2021/11/06 12:55:01;;;;;;;17.58;6.63;;;23.40;60.60;;;;;;31383838;28;20048;-37
2021/11/06 13:10:25;;;;;;;16.42;7.57;;;23.30;60.80;;;;;;31380035;28;20474;-42
2021/11/06 13:25:34;;;;;;;14.45;7.22;;;23.20;60.90;;;;;;31378620;28;20041;-44
2021/11/06 13:41:02;;;;;;;10.93;6.22;;;23.20;61.10;;;;;;31376681;28;20053;-46
2021/11/06 13:56:04;;;;;;;16.63;6.30;;;23.10;61.00;;;;;;31380407;28;20068;-44
2021/11/06 14:11:06;;;;;;;9.00;5.70;;;23.00;60.90;;;;;;31376907;28;20105;-45
2021/11/06 14:26:12;;;;;;;12.82;5.72;;;23.00;60.70;;;;;;31371200;28;20065;-46
2021/11/06 14:41:14;;;;;;;41.42;26.33;;;22.90;61.50;;;;;;31403818;28;20104;-36
2021/11/06 14:56:17;;;;;;;34.50;23.13;;;22.70;58.00;;;;;;31370797;28;20104;-35
2021/11/06 15:11:20;;;;;;;36.95;26.27;;;22.50;57.10;;;;;;31370559;28;20092;-36
2021/11/06 15:26:22;;;;;;;41.83;25.48;;;22.60;57.30;;;;;;31379933;28;20042;-40
2021/11/06 15:41:24;;;;;;;52.63;25.30;;;22.50;56.50;;;;;;31399795;28;20073;-42
2021/11/06 15:56:27;;;;;;;55.20;26.23;;;22.60;56.90;;;;;;31409635;28;20060;-36
2021/11/06 16:11:30;;;;;;;54.22;25.35;;;22.60;56.80;;;;;;31430497;28;20052;-43
2021/11/06 16:26:32;;;;;;;38.42;23.10;;;22.50;58.10;;;;;;31387493;28;20048;-43
2021/11/06 16:41:34;;;;;;;37.60;20.80;;;22.40;58.70;;;;;;31385621;28;20053;-43
2021/11/06 16:56:36;;;;;;;38.83;20.25;;;22.40;58.80;;;;;;31385334;28;20037;-37
2021/11/06 17:11:38;;;;;;;35.15;19.45;;;22.50;57.60;;;;;;31389525;28;20398;-41
2021/11/06 17:26:41;;;;;;;28.48;18.23;;;22.60;57.90;;;;;;31378044;28;20041;-36
2021/11/06 17:41:44;;;;;;;47.78;23.52;;;22.60;58.00;;;;;;31385083;28;20068;-42
2021/11/06 17:56:46;;;;;;;56.60;26.13;;;22.70;57.40;;;;;;31443118;28;20108;-47
2021/11/06 18:11:49;;;;;;;59.63;27.07;;;23.00;59.10;;;;;;31013705;28;9999752;-41
2021/11/06 18:26:53;;;;;;;45.60;23.38;;;23.40;58.70;;;;;;31363818;28;20329;-35
2021/11/06 18:41:56;;;;;;;55.15;22.50;;;23.50;59.70;;;;;;31365518;28;20088;-35
2021/11/06 18:56:59;;;;;;;40.72;18.90;;;23.50;59.80;;;;;;31361104;28;20076;-46
2021/11/06 19:12:02;;;;;;;34.17;17.70;;;23.50;60.40;;;;;;31360557;28;20061;-35
2021/11/06 19:27:17;;;;;;;38.42;16.77;;;23.50;60.60;;;;;;31370792;28;20041;-41
2021/11/06 19:42:19;;;;;;;33.42;17.27;;;23.50;60.70;;;;;;31364198;28;20081;-43
2021/11/06 19:57:21;;;;;;;28.40;15.68;;;23.40;61.70;;;;;;31368389;28;20045;-41
2021/11/06 20:12:23;;;;;;;47.88;28.30;;;23.40;61.10;;;;;;31381090;28;20060;-38
2021/11/06 20:27:25;;;;;;;5.95;4.47;;;23.10;59.30;;;;;;31392454;28;20045;-41
2021/11/06 20:42:31;;;;;;;2.53;1.13;;;23.20;60.40;;;;;;31389164;28;20045;-43
2021/11/06 20:57:33;;;;;;;0.30;0.30;;;23.20;60.80;;;;;;31386655;28;20087;-43
2021/11/06 21:27:40;;;;;;;65.55;45.42;;;23.20;61.30;;;;;;31422610;28;20060;-48
2021/11/06 21:42:48;;;;;;;10.50;7.18;;;23.10;60.40;;;;;;31030097;28;10000207;-42
2021/11/06 21:57:52;;;;;;;4.90;3.77;;;23.40;60.60;;;;;;31417110;28;20053;-40
2021/11/06 22:12:54;;;;;;;6.28;2.83;;;23.40;60.70;;;;;;31375611;28;20462;-38
2021/11/06 22:27:58;;;;;;;2.13;1.58;;;23.40;60.80;;;;;;31375285;28;20049;-44
2021/11/06 22:43:00;;;;;;;1.77;1.20;;;23.40;60.90;;;;;;31384202;28;20065;-38
2021/11/06 22:58:06;;;;;;;1.15;0.80;;;23.40;61.00;;;;;;31368896;28;20065;-42
2021/11/06 23:13:10;;;;;;;42.50;29.80;;;23.40;61.00;;;;;;31392922;28;20045;-43
2021/11/06 23:28:12;;;;;;;8.48;6.22;;;23.20;59.80;;;;;;31324824;28;20075;-44
2021/11/06 23:43:15;;;;;;;7.05;4.20;;;23.30;61.00;;;;;;31373143;28;20129;-40
2021/11/06 23:58:21;;;;;;;4.75;2.55;;;23.20;61.00;;;;;;31400931;28;20099;-39
